Walthall, Mississippi
Current Conditions -  °F | °C
As of 6:15 AM on Monday 24 Nov 2014 (Local Time) from KSTF Reporting Station
Scattered Clouds Scattered Clouds  
Wind Chill: 59°   Ceiling: Unl
Heat Index: 59°   Visibility: NA
Dew Point: 52°   Wind: 13mph
Humidity: 77%   Direction: 250°WSW
Pressure: 29.73"   Gusts: 23mph
Location:  33.61°N, 89.28°W
Report Text: KSTF 241215Z AUTO 25011G20KT 212V282 SCT023 SCT030 15/11 A2973 RMK AO2 PWINO
Loading
Personal Weather Stations






























Interactive Weather Map New forecast layout! Learn more

10-Day Weather Forecast

Advertisements
Track Severe Weather on mobile